createdAt,value
2017-04-03T00:00:30.071Z,23.4
2017-04-03T00:01:38.156Z,23.4
2017-04-03T00:02:46.244Z,23.4
2017-04-03T00:03:54.332Z,23.4
2017-04-03T00:05:02.419Z,23.3
2017-04-03T00:06:10.510Z,23.3
2017-04-03T00:07:18.601Z,23.5
2017-04-03T00:08:26.683Z,23.4
2017-04-03T00:09:34.770Z,23.4
2017-04-03T00:10:42.861Z,23.4
2017-04-03T00:11:50.952Z,23.4
2017-04-03T00:12:59.038Z,23.5
2017-04-03T00:14:07.125Z,23.3
2017-04-03T00:15:15.214Z,23.4
2017-04-03T00:16:23.299Z,23.5
2017-04-03T00:17:31.385Z,23.4
2017-04-03T00:18:39.477Z,23.4
2017-04-03T00:19:47.561Z,23.4
2017-04-03T00:20:55.649Z,23.4
2017-04-03T00:22:03.740Z,23.4
2017-04-03T00:23:11.827Z,23.5
2017-04-03T00:24:19.913Z,23.5
2017-04-03T00:25:27.999Z,23.4
2017-04-03T00:26:36.096Z,23.4
2017-04-03T00:27:44.177Z,23.4
2017-04-03T00:28:52.261Z,23.5
2017-04-03T00:30:00.352Z,23.3
2017-04-03T00:31:08.440Z,23.4
2017-04-03T00:32:16.523Z,23.4
2017-04-03T00:33:24.613Z,23.3
2017-04-03T00:34:32.702Z,23.4
2017-04-03T00:35:40.789Z,23.4
2017-04-03T00:36:48.872Z,23.4
2017-04-03T00:37:56.960Z,23.3
2017-04-03T00:39:05.052Z,23.4
2017-04-03T00:40:13.138Z,23.3
2017-04-03T00:41:21.229Z,23.3
2017-04-03T00:42:29.317Z,23.3
2017-04-03T00:43:37.402Z,23.3
2017-04-03T00:44:45.490Z,23.3
2017-04-03T00:45:53.645Z,23.3
2017-04-03T00:47:01.672Z,23.4
2017-04-03T00:48:09.760Z,23.3
2017-04-03T00:49:17.849Z,23.3
2017-04-03T00:50:25.931Z,23.3
2017-04-03T00:51:34.027Z,23.3
2017-04-03T00:52:42.110Z,23.3
2017-04-03T00:53:50.209Z,23.2
2017-04-03T00:54:58.302Z,23.3
2017-04-03T00:56:06.377Z,23.3
2017-04-03T00:57:14.470Z,23.3
2017-04-03T00:58:22.557Z,23.3
2017-04-03T00:59:30.646Z,23.3
2017-04-03T01:00:38.728Z,23.3
2017-04-03T01:01:46.822Z,23.3
2017-04-03T01:02:55.002Z,23.4
2017-04-03T01:04:02.995Z,23.3
2017-04-03T01:05:11.084Z,23.3
2017-04-03T01:06:19.170Z,23.3
2017-04-03T01:07:27.259Z,23.4
2017-04-03T01:08:35.345Z,23.3
2017-04-03T01:09:43.434Z,23.3
2017-04-03T01:10:51.522Z,23.2
2017-04-03T01:11:59.618Z,23.2
2017-04-03T01:13:07.707Z,23.2
2017-04-03T01:14:15.792Z,23.2
2017-04-03T01:15:23.880Z,23.3
2017-04-03T01:16:31.964Z,23.3
2017-04-03T01:17:40.057Z,23.3
2017-04-03T01:18:48.137Z,23.3
2017-04-03T01:19:56.230Z,23.3
2017-04-03T01:21:04.320Z,23.2
2017-04-03T01:22:12.408Z,23.2
2017-04-03T01:23:20.500Z,23.3
2017-04-03T01:24:28.589Z,23.3
2017-04-03T01:25:36.677Z,23.2
2017-04-03T01:26:44.763Z,23.2
2017-04-03T01:27:52.852Z,23.2
2017-04-03T01:29:00.947Z,23.2
2017-04-03T01:30:09.033Z,23.1
2017-04-03T01:31:17.118Z,23.2
2017-04-03T01:32:25.203Z,23.2
2017-04-03T01:33:33.295Z,23.1
2017-04-03T01:34:41.382Z,23.2
2017-04-03T01:35:49.461Z,23.1
2017-04-03T01:36:57.557Z,23.1
2017-04-03T01:38:05.644Z,23.2
2017-04-03T01:39:13.733Z,23.2
2017-04-03T01:40:21.817Z,23.2
2017-04-03T01:41:29.905Z,23.2
2017-04-03T01:42:38.000Z,23.1
2017-04-03T01:43:46.081Z,23.1
2017-04-03T01:44:54.175Z,23.2
2017-04-03T01:46:02.260Z,23.2
2017-04-03T01:47:10.353Z,23.1
2017-04-03T01:48:18.435Z,23.1
2017-04-03T01:49:26.526Z,23.1
2017-04-03T01:50:34.624Z,23.1
2017-04-03T01:51:42.704Z,23.1
2017-04-03T01:52:50.796Z,23.1
2017-04-03T01:53:58.886Z,23.1
2017-04-03T01:55:06.968Z,23.1
2017-04-03T01:56:15.057Z,23.1
2017-04-03T01:57:23.144Z,23.1
2017-04-03T01:58:31.231Z,23.0
2017-04-03T01:59:39.318Z,23.1
2017-04-03T02:00:47.409Z,23.0
2017-04-03T02:01:55.504Z,23.1
2017-04-03T02:03:03.584Z,23.1
2017-04-03T02:04:11.671Z,23.0
2017-04-03T02:05:19.766Z,23.0
2017-04-03T02:06:27.839Z,22.9
2017-04-03T02:07:35.927Z,23.0
2017-04-03T02:08:44.016Z,23.0
2017-04-03T02:09:52.116Z,22.9
2017-04-03T02:11:00.192Z,23.0
2017-04-03T02:12:08.283Z,22.9
2017-04-03T02:13:16.374Z,23.0
2017-04-03T02:14:24.468Z,23.0
2017-04-03T02:15:32.550Z,23.0
2017-04-03T02:16:40.641Z,22.9
2017-04-03T02:17:48.745Z,23.0
2017-04-03T02:18:56.818Z,23.0
2017-04-03T02:20:04.907Z,23.0
2017-04-03T02:21:12.997Z,22.9
2017-04-03T02:22:21.083Z,23.0
2017-04-03T02:23:29.166Z,23.0
2017-04-03T02:24:37.258Z,22.9
2017-04-03T02:25:45.346Z,22.9
2017-04-03T02:26:53.429Z,22.9
2017-04-03T02:28:01.600Z,22.9
2017-04-03T02:29:09.608Z,22.8
2017-04-03T02:30:17.697Z,22.8
2017-04-03T02:31:25.782Z,22.9
2017-04-03T02:32:33.875Z,22.9
2017-04-03T02:33:41.961Z,22.9
2017-04-03T02:34:50.043Z,22.9
2017-04-03T02:35:58.138Z,22.9
2017-04-03T02:37:06.220Z,22.8
2017-04-03T02:38:14.307Z,22.9
2017-04-03T02:39:22.390Z,22.8
2017-04-03T02:40:30.482Z,22.8
2017-04-03T02:41:38.569Z,22.8
2017-04-03T02:42:46.654Z,22.8
2017-04-03T02:43:54.743Z,22.7
2017-04-03T02:45:02.831Z,22.8
2017-04-03T02:46:10.914Z,22.8
2017-04-03T02:47:19.000Z,22.8
2017-04-03T02:48:27.091Z,22.8
2017-04-03T02:49:35.176Z,22.8
2017-04-03T02:50:43.259Z,22.8
2017-04-03T02:51:51.350Z,22.8
2017-04-03T02:52:59.436Z,22.7
2017-04-03T02:54:07.520Z,22.8
2017-04-03T02:55:15.606Z,22.8
2017-04-03T02:56:23.694Z,22.8
2017-04-03T02:57:31.785Z,22.7
2017-04-03T02:58:39.868Z,22.8
2017-04-03T02:59:47.963Z,22.7
2017-04-03T03:00:56.084Z,22.7
2017-04-03T03:02:04.137Z,22.8
2017-04-03T03:03:12.229Z,22.7
2017-04-03T03:04:20.318Z,22.7
2017-04-03T03:05:28.400Z,22.7
2017-04-03T03:06:36.488Z,22.6
2017-04-03T03:07:44.578Z,22.6
2017-04-03T03:08:52.668Z,22.6
2017-04-03T03:10:00.750Z,22.7
2017-04-03T03:11:08.836Z,22.6
2017-04-03T03:12:16.924Z,22.6
2017-04-03T03:13:25.012Z,22.7
2017-04-03T03:14:33.184Z,22.6
2017-04-03T03:15:41.188Z,22.6
2017-04-03T03:16:49.280Z,22.6
2017-04-03T03:17:57.365Z,22.6
2017-04-03T03:19:05.454Z,22.6
2017-04-03T03:20:13.539Z,22.6
2017-04-03T03:21:21.622Z,22.6
2017-04-03T03:22:29.709Z,22.6
2017-04-03T03:23:37.800Z,22.6
2017-04-03T03:24:45.887Z,22.6
2017-04-03T03:25:53.973Z,22.6
2017-04-03T03:27:02.058Z,22.6
2017-04-03T03:28:10.147Z,22.5
2017-04-03T03:29:18.236Z,22.5
2017-04-03T03:30:26.321Z,22.6
2017-04-03T03:31:34.437Z,22.6
2017-04-03T03:32:42.497Z,22.6
2017-04-03T03:33:50.580Z,22.5
2017-04-03T03:34:58.677Z,22.5
2017-04-03T03:36:06.760Z,22.5
2017-04-03T03:37:14.849Z,22.5
2017-04-03T03:38:22.932Z,22.5
2017-04-03T03:39:31.023Z,22.5
2017-04-03T03:40:39.108Z,22.6
2017-04-03T03:41:47.190Z,22.5
2017-04-03T03:42:55.280Z,22.5
2017-04-03T03:44:03.366Z,22.5
2017-04-03T03:45:11.449Z,22.5
2017-04-03T03:46:19.536Z,22.5
2017-04-03T03:47:27.625Z,22.5
2017-04-03T03:48:35.754Z,22.5
2017-04-03T03:49:43.796Z,22.4
2017-04-03T03:50:51.884Z,22.4
2017-04-03T03:51:59.970Z,22.3
2017-04-03T03:53:08.055Z,22.4
2017-04-03T03:54:16.140Z,22.3
2017-04-03T03:55:24.227Z,22.4
2017-04-03T03:56:32.312Z,22.4
2017-04-03T03:57:40.398Z,22.4
2017-04-03T03:58:48.490Z,22.3
2017-04-03T03:59:56.582Z,22.3
2017-04-03T04:01:04.669Z,22.3
2017-04-03T04:02:12.753Z,22.3
2017-04-03T04:03:20.840Z,22.3
2017-04-03T04:04:28.928Z,22.3
2017-04-03T04:05:37.009Z,22.2
2017-04-03T04:06:45.098Z,22.3
2017-04-03T04:07:53.184Z,22.3
2017-04-03T04:09:01.266Z,22.3
2017-04-03T04:10:09.359Z,22.3
2017-04-03T04:11:17.444Z,22.2
2017-04-03T04:12:25.534Z,22.3
2017-04-03T04:13:33.617Z,22.3
2017-04-03T04:14:41.704Z,22.3
2017-04-03T04:15:49.790Z,22.3
2017-04-03T04:16:57.875Z,22.2
2017-04-03T04:18:05.963Z,22.2
2017-04-03T04:19:14.057Z,22.2
2017-04-03T04:20:22.138Z,22.2
2017-04-03T04:21:30.225Z,22.2
2017-04-03T04:22:38.319Z,22.2
2017-04-03T04:23:46.404Z,22.2
2017-04-03T04:24:54.492Z,22.1
2017-04-03T04:26:02.580Z,22.2
2017-04-03T04:27:10.670Z,22.1
2017-04-03T04:28:18.755Z,22.1
2017-04-03T04:29:26.835Z,22.1
2017-04-03T04:30:34.926Z,22.1
2017-04-03T04:31:43.013Z,22.0
2017-04-03T04:32:51.096Z,22.1
2017-04-03T04:33:59.184Z,22.1
2017-04-03T04:35:07.272Z,22.1
2017-04-03T04:36:15.362Z,22.1
2017-04-03T04:37:23.440Z,22.1
2017-04-03T04:38:31.530Z,22.1
2017-04-03T04:39:39.619Z,22.1
2017-04-03T04:40:47.705Z,22.1
2017-04-03T04:41:55.791Z,22.0
2017-04-03T04:43:03.889Z,22.1
2017-04-03T04:44:11.959Z,22.1
2017-04-03T04:45:20.047Z,21.9
2017-04-03T04:46:28.136Z,21.9
2017-04-03T04:47:36.224Z,21.9
2017-04-03T04:48:44.314Z,22.0
2017-04-03T04:49:52.397Z,21.9
2017-04-03T04:51:00.484Z,21.9
2017-04-03T04:52:08.573Z,22.0
2017-04-03T04:53:16.657Z,21.9
2017-04-03T04:54:24.746Z,22.0
2017-04-03T04:55:32.828Z,22.0
2017-04-03T04:56:40.916Z,21.9
2017-04-03T04:57:49.005Z,21.9
2017-04-03T04:58:57.091Z,21.9
2017-04-03T05:00:05.172Z,21.9
2017-04-03T05:01:13.255Z,21.9
2017-04-03T05:02:21.345Z,21.9
2017-04-03T05:03:29.431Z,21.9
2017-04-03T05:04:37.513Z,21.9
2017-04-03T05:05:45.696Z,21.9
2017-04-03T05:06:53.690Z,21.9
2017-04-03T05:08:01.773Z,21.8
2017-04-03T05:09:09.869Z,21.8
2017-04-03T05:10:17.952Z,21.8
2017-04-03T05:11:26.036Z,21.8
2017-04-03T05:12:34.116Z,21.8
2017-04-03T05:13:42.206Z,21.7
2017-04-03T05:14:50.294Z,21.8
2017-04-03T05:15:58.374Z,21.8
2017-04-03T05:17:06.465Z,21.8
2017-04-03T05:18:14.553Z,21.8
2017-04-03T05:19:22.636Z,21.8
2017-04-03T05:20:31.153Z,21.7
2017-04-03T05:21:38.811Z,21.8
2017-04-03T05:22:46.898Z,21.7
2017-04-03T05:23:54.985Z,21.7
2017-04-03T05:25:03.070Z,21.7
2017-04-03T05:26:11.162Z,21.7
2017-04-03T05:27:19.249Z,21.8
2017-04-03T05:28:27.333Z,21.7
2017-04-03T05:29:35.462Z,21.7
2017-04-03T05:30:43.512Z,21.7
2017-04-03T05:31:51.592Z,21.8
2017-04-03T05:32:59.680Z,21.8
2017-04-03T05:34:07.763Z,21.7
2017-04-03T05:35:15.848Z,21.8
2017-04-03T05:36:24.263Z,21.7
2017-04-03T05:37:32.023Z,21.7
2017-04-03T05:38:40.105Z,21.7
2017-04-03T05:39:48.190Z,21.7
2017-04-03T05:40:56.281Z,21.6
2017-04-03T05:42:04.372Z,21.6
2017-04-03T05:43:12.453Z,21.7
2017-04-03T05:44:20.541Z,21.6
2017-04-03T05:45:28.686Z,21.6
2017-04-03T05:46:36.714Z,21.7
2017-04-03T05:47:44.797Z,21.6
2017-04-03T05:48:52.890Z,21.7
2017-04-03T05:50:01.018Z,21.7
2017-04-03T05:51:09.242Z,21.5
2017-04-03T05:52:17.220Z,21.7
2017-04-03T05:53:25.234Z,21.7
2017-04-03T05:54:33.315Z,21.6
2017-04-03T05:55:41.924Z,21.6
2017-04-03T05:56:49.492Z,21.7
2017-04-03T05:57:57.576Z,21.7
2017-04-03T05:59:05.660Z,21.6
2017-04-03T06:00:13.742Z,21.6
2017-04-03T06:01:21.833Z,21.6
2017-04-03T06:02:29.918Z,21.7
2017-04-03T06:03:38.008Z,21.6
2017-04-03T06:04:46.091Z,21.6
2017-04-03T06:05:54.177Z,21.6
2017-04-03T06:07:02.264Z,21.6
2017-04-03T06:08:10.348Z,21.6
2017-04-03T06:09:18.484Z,21.6
2017-04-03T06:10:26.524Z,21.6
2017-04-03T06:11:34.607Z,21.6
2017-04-03T06:12:42.696Z,21.6
2017-04-03T06:13:50.781Z,21.6
2017-04-03T06:14:58.869Z,21.6
2017-04-03T06:16:06.953Z,21.6
2017-04-03T06:17:15.043Z,21.7
2017-04-03T06:18:23.122Z,21.6
2017-04-03T06:19:31.225Z,21.6
2017-04-03T06:20:39.296Z,21.6
2017-04-03T06:21:47.383Z,21.5
2017-04-03T06:22:55.467Z,21.5
2017-04-03T06:24:03.555Z,21.5
2017-04-03T06:25:11.641Z,21.6
2017-04-03T06:26:19.729Z,21.6
2017-04-03T06:27:27.810Z,21.5
2017-04-03T06:28:35.899Z,21.6
2017-04-03T06:29:43.988Z,21.5
2017-04-03T06:30:52.077Z,21.6
2017-04-03T06:32:00.170Z,21.6
2017-04-03T06:33:08.242Z,21.5
2017-04-03T06:34:16.326Z,21.5
2017-04-03T06:35:24.409Z,21.5
2017-04-03T06:36:32.499Z,21.5
2017-04-03T06:37:40.585Z,21.5
2017-04-03T06:38:48.671Z,21.6
2017-04-03T06:39:56.755Z,21.5
2017-04-03T06:41:04.840Z,21.6
2017-04-03T06:42:12.923Z,21.5
2017-04-03T06:43:21.008Z,21.5
2017-04-03T06:44:29.100Z,21.4
2017-04-03T06:45:37.186Z,21.5
2017-04-03T06:46:45.270Z,21.5
2017-04-03T06:47:53.362Z,21.4
2017-04-03T06:49:01.455Z,21.4
2017-04-03T06:50:09.537Z,21.4
2017-04-03T06:51:17.641Z,21.4
2017-04-03T06:52:25.709Z,21.4
2017-04-03T06:53:33.794Z,21.4
2017-04-03T06:54:41.874Z,21.4
2017-04-03T06:55:49.967Z,21.4
2017-04-03T06:56:58.050Z,21.4
2017-04-03T06:58:06.138Z,21.4
2017-04-03T06:59:14.228Z,21.3
2017-04-03T07:00:22.323Z,21.4
2017-04-03T07:01:30.418Z,21.5
2017-04-03T07:02:38.513Z,21.4
2017-04-03T07:03:46.598Z,21.4
2017-04-03T07:04:54.683Z,21.3
2017-04-03T07:06:02.768Z,21.4
2017-04-03T07:07:10.858Z,21.4
2017-04-03T07:08:18.951Z,21.4
2017-04-03T07:09:27.027Z,21.3
2017-04-03T07:10:35.113Z,21.4
2017-04-03T07:11:43.205Z,21.4
2017-04-03T07:12:51.327Z,21.3
2017-04-03T07:13:59.376Z,21.4
2017-04-03T07:15:07.458Z,21.3
2017-04-03T07:16:15.548Z,21.3
2017-04-03T07:17:23.633Z,21.4
2017-04-03T07:18:31.718Z,21.4
2017-04-03T07:19:39.803Z,21.3
2017-04-03T07:20:47.892Z,21.3
2017-04-03T07:21:55.974Z,21.3
2017-04-03T07:23:04.064Z,21.3
2017-04-03T07:24:12.149Z,21.4
2017-04-03T07:25:20.238Z,21.3
2017-04-03T07:26:28.319Z,21.3
2017-04-03T07:27:36.407Z,21.3
2017-04-03T07:28:44.495Z,21.3
2017-04-03T07:29:52.579Z,21.4
2017-04-03T07:31:00.664Z,21.3
2017-04-03T07:32:08.753Z,21.4
2017-04-03T07:33:16.845Z,21.3
2017-04-03T07:34:24.933Z,21.3
2017-04-03T07:35:33.020Z,21.3
2017-04-03T07:36:41.108Z,21.4
2017-04-03T07:37:49.228Z,21.4
2017-04-03T07:38:57.277Z,21.4
2017-04-03T07:40:05.363Z,21.3
2017-04-03T07:41:13.449Z,21.3
2017-04-03T07:42:21.534Z,21.4
2017-04-03T07:43:29.624Z,21.3
2017-04-03T07:44:37.712Z,21.4
2017-04-03T07:45:45.790Z,21.3
2017-04-03T07:46:53.880Z,21.3
2017-04-03T07:48:01.969Z,21.3
2017-04-03T07:49:10.053Z,21.3
2017-04-03T07:50:18.136Z,21.3
2017-04-03T07:51:26.226Z,21.4
2017-04-03T07:52:34.313Z,21.3
2017-04-03T07:53:42.401Z,21.3
2017-04-03T07:54:50.490Z,21.4
2017-04-03T07:55:58.576Z,21.3
2017-04-03T07:57:06.659Z,21.3
2017-04-03T07:58:14.745Z,21.3
2017-04-03T07:59:22.833Z,21.3
2017-04-03T08:00:30.917Z,21.4
2017-04-03T08:01:39.004Z,21.4
2017-04-03T08:02:47.090Z,21.3
2017-04-03T08:03:55.176Z,21.3
2017-04-03T08:05:03.255Z,21.3
2017-04-03T08:06:11.679Z,21.4
2017-04-03T08:07:19.432Z,21.4
2017-04-03T08:08:27.519Z,21.4
2017-04-03T08:09:35.599Z,21.4
2017-04-03T08:10:43.693Z,21.4
2017-04-03T08:11:51.781Z,21.3
2017-04-03T08:12:59.867Z,21.4
2017-04-03T08:14:07.951Z,21.4
2017-04-03T08:15:16.038Z,21.3
2017-04-03T08:16:24.124Z,21.3
2017-04-03T08:17:32.207Z,21.4
2017-04-03T08:18:40.299Z,21.4
2017-04-03T08:19:48.380Z,21.4
2017-04-03T08:20:56.464Z,21.4
2017-04-03T08:22:04.548Z,21.4
2017-04-03T08:23:12.639Z,21.4
2017-04-03T08:24:20.729Z,21.4
2017-04-03T08:25:28.805Z,21.3
2017-04-03T08:26:36.895Z,21.4
2017-04-03T08:27:44.980Z,21.4
2017-04-03T08:28:53.061Z,21.4
2017-04-03T08:30:01.156Z,21.4
2017-04-03T08:31:09.240Z,21.4
2017-04-03T08:32:17.321Z,21.4
2017-04-03T08:33:25.407Z,21.3
2017-04-03T08:34:33.496Z,21.4
2017-04-03T08:35:41.583Z,21.4
2017-04-03T08:36:49.666Z,21.3
2017-04-03T08:37:57.752Z,21.4
2017-04-03T08:39:05.842Z,21.3
2017-04-03T08:40:13.938Z,21.4
2017-04-03T08:41:22.013Z,21.3
2017-04-03T08:42:30.100Z,21.4
2017-04-03T08:43:38.187Z,21.3
2017-04-03T08:44:46.280Z,21.3
2017-04-03T08:45:54.359Z,21.4
2017-04-03T08:47:02.447Z,21.3
2017-04-03T08:48:10.534Z,21.3
2017-04-03T08:49:18.624Z,21.3
2017-04-03T08:50:26.796Z,21.4
2017-04-03T08:51:34.797Z,21.4
2017-04-03T08:52:42.882Z,21.4
2017-04-03T08:53:50.994Z,21.4
2017-04-03T08:54:59.057Z,21.3
2017-04-03T08:56:07.138Z,21.4
2017-04-03T08:57:15.224Z,21.4
2017-04-03T08:58:23.314Z,21.4
2017-04-03T08:59:31.399Z,21.4
2017-04-03T09:00:39.488Z,21.3
2017-04-03T09:01:47.578Z,21.4
2017-04-03T09:02:55.662Z,21.4
2017-04-03T09:04:03.747Z,21.4
2017-04-03T09:05:11.832Z,21.4
2017-04-03T09:06:19.918Z,21.4
2017-04-03T09:07:27.999Z,21.3
2017-04-03T09:08:36.091Z,21.3
2017-04-03T09:09:44.180Z,21.4
2017-04-03T09:10:52.269Z,21.4
2017-04-03T09:12:00.354Z,21.4
2017-04-03T09:13:08.437Z,21.4
2017-04-03T09:14:16.525Z,21.4
2017-04-03T09:15:24.610Z,21.4
2017-04-03T09:16:32.693Z,21.4
2017-04-03T09:17:40.781Z,21.4
2017-04-03T09:18:48.868Z,21.4
2017-04-03T09:19:56.948Z,21.4
2017-04-03T09:21:05.038Z,21.4
2017-04-03T09:22:13.135Z,21.4
2017-04-03T09:23:21.216Z,21.4
2017-04-03T09:24:29.300Z,21.4
2017-04-03T09:25:37.388Z,21.4
2017-04-03T09:26:45.476Z,21.4
2017-04-03T09:27:53.562Z,21.4
2017-04-03T09:29:01.649Z,21.4
2017-04-03T09:30:09.743Z,21.4
2017-04-03T09:31:17.824Z,21.4
2017-04-03T09:32:25.910Z,21.4
2017-04-03T09:33:34.001Z,21.4
2017-04-03T09:34:42.087Z,21.4
2017-04-03T09:35:50.173Z,21.5
2017-04-03T09:36:58.321Z,21.4
2017-04-03T09:38:06.346Z,21.5
2017-04-03T09:39:14.431Z,21.4
2017-04-03T09:40:22.512Z,21.5
2017-04-03T09:41:30.605Z,21.4
2017-04-03T09:42:38.692Z,21.4
2017-04-03T09:43:46.776Z,21.4
2017-04-03T09:44:54.863Z,21.4
2017-04-03T09:46:02.949Z,21.4
2017-04-03T09:47:11.034Z,21.5
2017-04-03T09:48:19.117Z,21.5
2017-04-03T09:49:27.202Z,21.5
2017-04-03T09:50:35.293Z,21.5
2017-04-03T09:51:43.377Z,21.4
2017-04-03T09:52:51.465Z,21.5
2017-04-03T09:53:59.633Z,21.4
2017-04-03T09:55:07.637Z,21.5
2017-04-03T09:56:15.723Z,21.4
2017-04-03T09:57:23.814Z,21.4
2017-04-03T09:58:31.899Z,21.5
2017-04-03T09:59:39.981Z,21.4
2017-04-03T10:00:48.068Z,21.4
2017-04-03T10:01:56.155Z,21.4
2017-04-03T10:03:04.244Z,21.5
2017-04-03T10:04:12.322Z,21.5
2017-04-03T10:05:20.414Z,21.5
2017-04-03T10:06:28.502Z,21.4
2017-04-03T10:07:36.587Z,21.5
2017-04-03T10:08:44.675Z,21.5
2017-04-03T10:09:52.759Z,21.5
2017-04-03T10:11:00.908Z,21.4
2017-04-03T10:12:08.929Z,21.5
2017-04-03T10:13:17.175Z,21.4
2017-04-03T10:14:25.102Z,21.5
2017-04-03T10:15:33.183Z,21.5
2017-04-03T10:16:41.274Z,21.5
2017-04-03T10:17:49.361Z,21.4
2017-04-03T10:18:57.442Z,21.5
2017-04-03T10:20:05.529Z,21.5
2017-04-03T10:21:13.622Z,21.4
2017-04-03T10:22:21.705Z,21.4
2017-04-03T10:23:29.788Z,21.4
2017-04-03T10:24:38.111Z,21.5
2017-04-03T10:25:46.001Z,21.4
2017-04-03T10:26:54.049Z,21.5
2017-04-03T10:28:02.130Z,21.5
2017-04-03T10:29:10.223Z,21.4
2017-04-03T10:30:18.305Z,21.5
2017-04-03T10:31:26.400Z,21.4
2017-04-03T10:32:34.482Z,21.4
2017-04-03T10:33:42.566Z,21.5
2017-04-03T10:34:50.834Z,21.5
2017-04-03T10:35:58.738Z,21.4
2017-04-03T10:37:06.823Z,21.5
2017-04-03T10:38:14.907Z,21.4
2017-04-03T10:39:22.998Z,21.5
2017-04-03T10:40:31.081Z,21.4
2017-04-03T10:41:39.189Z,21.4
2017-04-03T10:42:47.253Z,21.5
2017-04-03T10:43:55.471Z,21.5
2017-04-03T10:45:03.425Z,21.5
2017-04-03T10:46:11.515Z,21.5
2017-04-03T10:47:19.598Z,21.5
2017-04-03T10:48:27.686Z,21.5
2017-04-03T10:49:35.775Z,21.5
2017-04-03T10:50:43.860Z,21.5
2017-04-03T10:51:51.945Z,21.5
2017-04-03T10:53:00.035Z,21.5
2017-04-03T10:54:08.114Z,21.5
2017-04-03T10:55:16.201Z,21.5
2017-04-03T10:56:24.301Z,21.6
2017-04-03T10:57:32.378Z,21.5
2017-04-03T10:58:40.966Z,21.5
2017-04-03T10:59:48.551Z,21.6
2017-04-03T11:00:56.638Z,21.5
2017-04-03T11:02:04.725Z,21.6
2017-04-03T11:03:12.806Z,21.5
2017-04-03T11:04:20.899Z,21.5
2017-04-03T11:05:28.982Z,21.6
2017-04-03T11:06:37.068Z,21.5
2017-04-03T11:07:45.153Z,21.6
2017-04-03T11:08:53.248Z,21.5
2017-04-03T11:10:01.321Z,21.6
2017-04-03T11:11:09.407Z,21.6
2017-04-03T11:12:17.499Z,21.5
2017-04-03T11:13:25.587Z,21.6
2017-04-03T11:14:33.670Z,21.6
2017-04-03T11:15:41.758Z,21.5
2017-04-03T11:16:49.843Z,21.6
2017-04-03T11:17:57.926Z,21.5
2017-04-03T11:19:06.011Z,21.6
2017-04-03T11:20:14.106Z,21.6
2017-04-03T11:21:22.185Z,21.5
2017-04-03T11:22:30.272Z,21.6
2017-04-03T11:23:38.364Z,21.6
2017-04-03T11:24:46.452Z,21.6
2017-04-03T11:25:54.541Z,21.6
2017-04-03T11:27:02.626Z,21.6
2017-04-03T11:28:10.713Z,21.6
2017-04-03T11:29:18.798Z,21.6
2017-04-03T11:30:26.879Z,21.7
2017-04-03T11:31:34.975Z,21.6
2017-04-03T11:32:43.064Z,21.6
2017-04-03T11:33:51.143Z,21.6
2017-04-03T11:34:59.241Z,21.7
2017-04-03T11:36:07.325Z,21.7
2017-04-03T11:37:15.408Z,21.6
2017-04-03T11:38:23.491Z,21.6
2017-04-03T11:39:31.580Z,21.6
2017-04-03T11:40:39.673Z,21.6
2017-04-03T11:41:47.748Z,21.7
2017-04-03T11:42:55.837Z,21.7
2017-04-03T11:44:03.921Z,21.7
2017-04-03T11:45:12.015Z,21.6
2017-04-03T11:46:20.100Z,21.6
2017-04-03T11:47:28.189Z,21.6
2017-04-03T11:48:36.283Z,21.6
2017-04-03T11:49:44.360Z,21.6
2017-04-03T11:50:52.447Z,21.7
2017-04-03T11:52:00.530Z,21.6
2017-04-03T11:53:08.617Z,21.6
2017-04-03T11:54:16.702Z,21.7
2017-04-03T11:55:24.790Z,21.7
2017-04-03T11:56:32.877Z,21.7
2017-04-03T11:57:40.960Z,21.7
2017-04-03T11:58:49.049Z,21.7
2017-04-03T11:59:57.137Z,21.6
2017-04-03T12:01:05.222Z,21.7
2017-04-03T12:02:13.306Z,21.8
2017-04-03T12:03:21.393Z,21.8
2017-04-03T12:04:29.480Z,21.7
2017-04-03T12:05:37.564Z,21.7
2017-04-03T12:06:45.654Z,21.7
2017-04-03T12:07:53.742Z,21.6
2017-04-03T12:09:01.834Z,21.7
2017-04-03T12:10:09.931Z,21.7
2017-04-03T12:11:18.018Z,21.7
2017-04-03T12:12:26.106Z,21.7
2017-04-03T12:13:34.495Z,21.7
2017-04-03T12:14:42.282Z,21.7
2017-04-03T12:15:50.375Z,21.7
2017-04-03T12:16:58.462Z,21.7
2017-04-03T12:18:06.547Z,21.7
2017-04-03T12:19:14.826Z,21.7
2017-04-03T12:20:22.729Z,21.7
2017-04-03T12:21:30.811Z,21.8
2017-04-03T12:22:38.931Z,21.7
2017-04-03T12:23:46.985Z,21.7
2017-04-03T12:24:55.114Z,21.7
2017-04-03T12:26:03.159Z,21.8
2017-04-03T12:27:11.248Z,21.7
2017-04-03T12:28:19.335Z,21.8
2017-04-03T12:29:27.426Z,21.8
2017-04-03T12:30:35.508Z,21.7
2017-04-03T12:31:43.628Z,21.7
2017-04-03T12:32:51.699Z,21.7
2017-04-03T12:33:59.778Z,21.8
2017-04-03T12:35:07.859Z,21.8
2017-04-03T12:36:15.952Z,21.7
2017-04-03T12:37:24.032Z,21.7
2017-04-03T12:38:32.123Z,21.8
2017-04-03T12:39:40.251Z,21.7
2017-04-03T12:40:48.294Z,21.7
2017-04-03T12:41:56.387Z,21.7
2017-04-03T12:43:04.473Z,21.7
2017-04-03T12:44:12.558Z,21.7
2017-04-03T12:45:20.645Z,21.8
2017-04-03T12:46:28.733Z,21.7
2017-04-03T12:47:36.814Z,21.7
2017-04-03T12:48:44.906Z,21.8
2017-04-03T12:49:52.986Z,21.7
2017-04-03T12:51:01.086Z,21.7
2017-04-03T12:52:09.168Z,21.8
2017-04-03T12:53:17.252Z,21.7
2017-04-03T12:54:25.347Z,21.7
2017-04-03T12:55:33.434Z,21.7
2017-04-03T12:56:41.521Z,21.7
2017-04-03T12:57:49.609Z,21.7
2017-04-03T12:58:57.694Z,21.8
2017-04-03T13:00:05.784Z,21.7
2017-04-03T13:01:13.869Z,21.8
2017-04-03T13:02:21.966Z,21.7
2017-04-03T13:03:30.060Z,21.7
2017-04-03T13:04:38.147Z,21.7
2017-04-03T13:05:46.237Z,21.7
2017-04-03T13:06:54.326Z,21.7
2017-04-03T13:08:02.415Z,21.7
2017-04-03T13:09:10.729Z,21.7
2017-04-03T13:10:19.345Z,21.6
2017-04-03T13:11:26.691Z,21.7
2017-04-03T13:12:35.180Z,21.8
2017-04-03T13:13:43.364Z,21.7
2017-04-03T13:14:50.957Z,21.7
2017-04-03T13:15:59.744Z,21.7
2017-04-03T13:17:07.378Z,21.8
2017-04-03T13:18:15.328Z,21.7
2017-04-03T13:19:23.363Z,21.7
2017-04-03T13:20:31.401Z,21.6
2017-04-03T13:21:39.494Z,21.6
2017-04-03T13:22:47.579Z,21.6
2017-04-03T13:23:55.715Z,21.6
2017-04-03T13:25:03.748Z,21.7
2017-04-03T13:26:11.841Z,21.6
2017-04-03T13:27:19.923Z,21.6
2017-04-03T13:28:28.010Z,21.6
2017-04-03T13:29:36.097Z,21.7
2017-04-03T13:30:44.187Z,21.7
2017-04-03T13:31:52.284Z,21.7
2017-04-03T13:33:00.352Z,21.5
2017-04-03T13:34:08.442Z,21.6
2017-04-03T13:35:16.523Z,21.6
2017-04-03T13:36:24.610Z,21.6
2017-04-03T13:37:32.706Z,21.6
2017-04-03T13:38:40.802Z,21.7
2017-04-03T13:39:48.890Z,21.6
2017-04-03T13:40:56.980Z,21.6
2017-04-03T13:42:05.063Z,21.7
2017-04-03T13:43:13.151Z,21.7
2017-04-03T13:44:21.234Z,21.6
2017-04-03T13:45:29.331Z,21.6
2017-04-03T13:46:37.418Z,21.6
2017-04-03T13:47:45.499Z,21.8
2017-04-03T13:48:53.588Z,21.7
2017-04-03T13:50:01.680Z,21.7
2017-04-03T13:51:09.768Z,21.7
2017-04-03T13:52:17.854Z,21.6
2017-04-03T13:53:25.947Z,21.7
2017-04-03T13:54:34.035Z,21.6
2017-04-03T13:55:42.117Z,21.6
2017-04-03T13:56:50.211Z,21.7
2017-04-03T13:57:58.308Z,21.6
2017-04-03T13:59:06.391Z,21.6
2017-04-03T14:00:14.476Z,21.6
2017-04-03T14:01:22.570Z,21.6
2017-04-03T14:02:30.652Z,21.6
2017-04-03T14:03:38.750Z,21.6
2017-04-03T14:04:46.838Z,21.7
2017-04-03T14:05:54.919Z,21.6
2017-04-03T14:07:03.006Z,21.6
2017-04-03T14:08:11.092Z,21.6
2017-04-03T14:09:19.181Z,21.6
2017-04-03T14:10:27.272Z,21.6
2017-04-03T14:11:35.358Z,21.7
2017-04-03T14:12:43.450Z,21.6
2017-04-03T14:13:51.537Z,21.6
2017-04-03T14:14:59.624Z,21.6
2017-04-03T14:16:07.720Z,21.6
2017-04-03T14:17:15.798Z,21.6
2017-04-03T14:18:23.889Z,21.6
2017-04-03T14:19:31.970Z,21.6
2017-04-03T14:20:40.059Z,21.6
2017-04-03T14:21:48.149Z,21.6
2017-04-03T14:22:56.237Z,21.6
2017-04-03T14:24:04.321Z,21.6
2017-04-03T14:25:12.412Z,21.7
2017-04-03T14:26:20.500Z,21.6
2017-04-03T14:27:28.585Z,21.6
2017-04-03T14:28:36.673Z,21.6
2017-04-03T14:29:44.766Z,21.5
2017-04-03T14:30:52.842Z,21.6
2017-04-03T14:32:00.931Z,21.6
2017-04-03T14:33:09.020Z,21.6
2017-04-03T14:34:17.110Z,21.6
2017-04-03T14:35:25.195Z,21.6
2017-04-03T14:36:33.293Z,21.6
2017-04-03T14:37:41.379Z,21.6
2017-04-03T14:38:49.455Z,21.7
2017-04-03T14:39:57.544Z,21.7
2017-04-03T14:41:05.631Z,21.6
2017-04-03T14:42:13.719Z,21.6
2017-04-03T14:43:21.803Z,21.6
2017-04-03T14:44:29.898Z,21.6
2017-04-03T14:45:37.984Z,21.7
2017-04-03T14:46:46.072Z,21.6
2017-04-03T14:47:54.160Z,21.6
2017-04-03T14:49:02.246Z,21.6
2017-04-03T14:50:10.334Z,21.6
2017-04-03T14:51:18.455Z,21.6
2017-04-03T14:52:26.517Z,21.6
2017-04-03T14:53:34.592Z,21.6
2017-04-03T14:54:42.679Z,21.7
2017-04-03T14:55:50.766Z,21.6
2017-04-03T14:56:58.855Z,21.6
2017-04-03T14:58:06.943Z,21.6
2017-04-03T14:59:15.027Z,21.6
2017-04-03T15:00:23.114Z,21.6
2017-04-03T15:01:31.201Z,21.6
2017-04-03T15:02:39.290Z,21.7
2017-04-03T15:03:47.376Z,21.6
2017-04-03T15:04:55.466Z,21.6
2017-04-03T15:06:03.557Z,21.6